Flight Track Log - Related Links

Times and Time Zones

All times are in EDT time to prevent confusion due to time zone crossing. See the MRA679 flight status page for this flight to view local times or setup timezone preferences in your user account.


Time Position Orientation Groundspeed Altitude Reporting Facility
EDT Latitude Longitude Course Direction KTS MPH feet Rate Location/Type
Tue 08:00:48 AM 30.0078 -95.3569 254° West 106 122 500  Level Houston Center
Tue 08:02:01 AM 29.9961 -95.4044 250° West 130 150 1,500 750 Climbing Houston Center
Tue 08:02:56 AM 29.9847 -95.4400 244° Southwest 128 147 2,100 639 Climbing Houston Center
Tue 08:04:03 AM 29.9669 -95.4825 247° West 132 152 2,800 422 Climbing Houston Center
Tue 08:05:04 AM 29.9511 -95.5250 240° Southwest 154 177 3,000 98 Climbing Houston Center
Tue 08:06:05 AM 29.9289 -95.5697 237° Southwest 156 180 3,000  Level Houston Center
Tue 08:07:06 AM 29.9047 -95.6119 227° Southwest 153 176 3,000  Level Houston Center
Tue 08:08:07 AM 29.8744 -95.6492 231° Southwest 156 180 3,000  Level Houston Center
Tue 08:09:08 AM 29.8461 -95.6889 225° Southwest 156 180 3,000 155 Level Houston Center
Tue 08:10:03 AM 29.8181 -95.7211 237° Southwest 153 176 3,300 259 Climbing Houston Center
Tue 08:11:04 AM 29.7958 -95.7611 225° Southwest 145 167 3,500 197 Climbing Houston Center
Tue 08:12:05 AM 29.7656 -95.7958 231° Southwest 150 173 3,700 197 Climbing Houston Center
Tue 08:13:06 AM 29.7394 -95.8328 225° Southwest 152 175 3,900 141 Climbing Houston Center
Tue 08:14:13 AM 29.7050 -95.8722 229° Southwest 150 173 4,000 188 Climbing Houston Center
Tue 08:15:14 AM 29.6786 -95.9069 227° Southwest 152 175 4,300 246 Climbing Houston Center
Tue 08:16:15 AM 29.6483 -95.9439 227° Southwest 151 174 4,500 277 Climbing Houston Center
Tue 08:17:24 AM 29.6181 -95.9808 231° Southwest 160 184 4,900 326 Climbing Houston Center
Tue 08:18:24 AM 29.5917 -96.0181 229° Southwest 160 184 5,200 303 Climbing Houston Center
Tue 08:19:23 AM 29.5633 -96.0550 225° Southwest 160 184 5,500 350 Climbing Houston Center
Tue 08:20:24 AM 29.5331 -96.0894 227° Southwest 160 184 5,900 198 Climbing Houston Center
Tue 08:21:24 AM 29.5047 -96.1242 224° Southwest 160 184 5,900  Level Houston Center
Tue 08:22:24 AM 29.4722 -96.1608 227° Southwest 160 184 5,900  Level Houston Center
Tue 08:23:23 AM 29.4419 -96.1978 226° Southwest 160 184 5,900  Level Houston Center
Tue 08:24:24 AM 29.4114 -96.2344 228° Southwest 160 184 5,900  Level Houston Center
Tue 08:25:24 AM 29.3808 -96.2736 227° Southwest 160 184 5,900  Level Houston Center
Tue 08:26:24 AM 29.3503 -96.3106 228° Southwest 160 184 5,900  Level Houston Center
Tue 08:27:24 AM 29.3197 -96.3497 227° Southwest 160 184 5,900  Level Houston Center
Tue 08:28:24 AM 29.2894 -96.3864 224° Southwest 160 184 5,900  Level Houston Center
Tue 08:29:24 AM 29.2567 -96.4231 230° Southwest 160 184 5,900  Level Houston Center
Tue 08:30:24 AM 29.2283 -96.4622 226° Southwest 160 184 5,900  Level Houston Center
Tue 08:31:24 AM 29.1978 -96.4989 232° Southwest 160 184 5,900 -150 Level Houston Center
Tue 08:32:24 AM 29.1692 -96.5403 228° Southwest 160 184 5,600 -400 Descending Houston Center
Tue 08:33:24 AM 29.1364 -96.5817 229° Southwest 165 190 5,100 -450 Descending Houston Center
Tue 08:34:24 AM 29.1056 -96.6228 228° Southwest 170 196 4,700 -400 Descending Houston Center
Tue 08:35:24 AM 29.0728 -96.6642 229° Southwest 170 196 4,300 -400 Descending Houston Center
Tue 08:36:24 AM 29.0419 -96.7053 228° Southwest 175 201 3,900 -350 Descending Houston Center
Tue 08:37:24 AM 29.0114 -96.7442 232° Southwest 175 201 3,600 -350 Descending Houston Center
Tue 08:38:24 AM 28.9828 -96.7856 259° West 175 201 3,200 -500 Descending Houston Center
Tue 08:39:24 AM 28.9744 -96.8350 270° West 169 194 2,600 -400 Descending Houston Center
Tue 08:40:24 AM 28.9744 -96.8919 242° Southwest 169 194 2,400 -250 Descending Houston Center
Tue 08:41:24 AM 28.9539 -96.9361 222° Southwest 169 194 2,100 -400 Descending Houston Center
Tue 08:42:24 AM 28.9214 -96.9700 166° South 164 189 1,600 -700 Descending Houston Center
Tue 08:43:24 AM 28.8822 -96.9586 166° South 126 145 700 -900 Descending Houston Center

Login

Don't have an account? Register now (free) for customized features, flight alerts, and more!